sensor_id;sensor_type;location;lat;lon;timestamp;temperature;humidity
3954;DHT22;1991;48.682;9.030;2023-12-22T00:00:27;7.40;99.90
3954;DHT22;1991;48.682;9.030;2023-12-22T00:02:52;7.40;99.90
3954;DHT22;1991;48.682;9.030;2023-12-22T00:05:18;7.40;99.90
3954;DHT22;1991;48.682;9.030;2023-12-22T00:07:43;7.20;99.90
3954;DHT22;1991;48.682;9.030;2023-12-22T00:10:09;7.20;99.90
3954;DHT22;1991;48.682;9.030;2023-12-22T00:12:34;7.10;99.90
3954;DHT22;1991;48.682;9.030;2023-12-22T00:15:00;7.20;99.90
3954;DHT22;1991;48.682;9.030;2023-12-22T00:17:26;7.20;99.90
3954;DHT22;1991;48.682;9.030;2023-12-22T00:19:51;7.20;99.90
3954;DHT22;1991;48.682;9.030;2023-12-22T00:22:17;7.30;99.90
3954;DHT22;1991;48.682;9.030;2023-12-22T00:24:42;7.30;99.90
3954;DHT22;1991;48.682;9.030;2023-12-22T00:27:08;7.30;99.90
3954;DHT22;1991;48.682;9.030;2023-12-22T00:29:34;7.20;99.90
3954;DHT22;1991;48.682;9.030;2023-12-22T00:32:02;7.20;99.90
3954;DHT22;1991;48.682;9.030;2023-12-22T00:34:28;7.30;99.90
3954;DHT22;1991;48.682;9.030;2023-12-22T00:36:53;7.30;99.90
3954;DHT22;1991;48.682;9.030;2023-12-22T00:39:19;7.30;99.90
3954;DHT22;1991;48.682;9.030;2023-12-22T00:41:44;7.30;99.90
3954;DHT22;1991;48.682;9.030;2023-12-22T00:44:10;7.30;99.90
3954;DHT22;1991;48.682;9.030;2023-12-22T00:46:35;7.30;99.90
3954;DHT22;1991;48.682;9.030;2023-12-22T00:49:01;7.30;99.90
3954;DHT22;1991;48.682;9.030;2023-12-22T00:51:27;7.20;99.90
3954;DHT22;1991;48.682;9.030;2023-12-22T00:53:52;7.20;99.90
3954;DHT22;1991;48.682;9.030;2023-12-22T00:56:18;7.20;99.90
3954;DHT22;1991;48.682;9.030;2023-12-22T00:58:43;7.20;99.90
3954;DHT22;1991;48.682;9.030;2023-12-22T01:01:09;7.20;99.90
3954;DHT22;1991;48.682;9.030;2023-12-22T01:03:34;7.00;99.90
3954;DHT22;1991;48.682;9.030;2023-12-22T01:06:00;7.10;99.90
3954;DHT22;1991;48.682;9.030;2023-12-22T01:08:25;7.10;99.90
3954;DHT22;1991;48.682;9.030;2023-12-22T01:10:51;7.10;99.90
3954;DHT22;1991;48.682;9.030;2023-12-22T01:13:16;7.10;99.90
3954;DHT22;1991;48.682;9.030;2023-12-22T01:15:42;7.00;99.90
3954;DHT22;1991;48.682;9.030;2023-12-22T01:18:09;7.00;99.90
3954;DHT22;1991;48.682;9.030;2023-12-22T01:20:35;7.10;99.90
3954;DHT22;1991;48.682;9.030;2023-12-22T01:23:01;7.10;99.90
3954;DHT22;1991;48.682;9.030;2023-12-22T01:25:26;7.00;99.90
3954;DHT22;1991;48.682;9.030;2023-12-22T01:27:52;7.00;99.90
3954;DHT22;1991;48.682;9.030;2023-12-22T01:30:18;7.00;99.90
3954;DHT22;1991;48.682;9.030;2023-12-22T01:32:44;7.10;99.90
3954;DHT22;1991;48.682;9.030;2023-12-22T01:35:09;7.10;99.90
3954;DHT22;1991;48.682;9.030;2023-12-22T01:37:36;7.10;99.90
3954;DHT22;1991;48.682;9.030;2023-12-22T01:40:02;7.10;99.90
3954;DHT22;1991;48.682;9.030;2023-12-22T01:42:28;7.00;99.90
3954;DHT22;1991;48.682;9.030;2023-12-22T01:44:54;7.00;99.90
3954;DHT22;1991;48.682;9.030;2023-12-22T01:47:19;6.90;99.90
3954;DHT22;1991;48.682;9.030;2023-12-22T01:49:45;7.00;99.90
3954;DHT22;1991;48.682;9.030;2023-12-22T01:52:11;7.00;99.90
3954;DHT22;1991;48.682;9.030;2023-12-22T01:54:37;6.90;99.90
3954;DHT22;1991;48.682;9.030;2023-12-22T01:57:03;6.80;99.90
3954;DHT22;1991;48.682;9.030;2023-12-22T01:59:29;6.80;99.90
3954;DHT22;1991;48.682;9.030;2023-12-22T02:02:02;6.80;99.90
3954;DHT22;1991;48.682;9.030;2023-12-22T02:04:30;6.70;99.90
3954;DHT22;1991;48.682;9.030;2023-12-22T02:06:58;6.70;99.90
3954;DHT22;1991;48.682;9.030;2023-12-22T02:09:26;6.70;99.90
3954;DHT22;1991;48.682;9.030;2023-12-22T02:11:51;6.70;99.90
3954;DHT22;1991;48.682;9.030;2023-12-22T02:14:17;6.80;99.90
3954;DHT22;1991;48.682;9.030;2023-12-22T02:16:48;6.80;99.90
3954;DHT22;1991;48.682;9.030;2023-12-22T02:19:40;6.70;99.90
3954;DHT22;1991;48.682;9.030;2023-12-22T02:22:08;6.70;99.90
3954;DHT22;1991;48.682;9.030;2023-12-22T02:24:34;6.60;99.90
3954;DHT22;1991;48.682;9.030;2023-12-22T02:32:34;6.70;99.90
3954;DHT22;1991;48.682;9.030;2023-12-22T02:35:04;6.70;99.90
3954;DHT22;1991;48.682;9.030;2023-12-22T02:37:31;6.70;99.90
3954;DHT22;1991;48.682;9.030;2023-12-22T02:39:58;6.70;99.90
3954;DHT22;1991;48.682;9.030;2023-12-22T02:42:25;6.80;99.90
3954;DHT22;1991;48.682;9.030;2023-12-22T02:44:59;6.80;99.90
3954;DHT22;1991;48.682;9.030;2023-12-22T02:47:24;6.90;99.90
3954;DHT22;1991;48.682;9.030;2023-12-22T02:49:50;6.90;99.90
3954;DHT22;1991;48.682;9.030;2023-12-22T02:52:16;6.90;99.90
3954;DHT22;1991;48.682;9.030;2023-12-22T02:54:41;6.90;99.90
3954;DHT22;1991;48.682;9.030;2023-12-22T02:57:07;6.80;99.90
3954;DHT22;1991;48.682;9.030;2023-12-22T02:59:33;6.80;99.90
3954;DHT22;1991;48.682;9.030;2023-12-22T03:01:59;6.90;99.90
3954;DHT22;1991;48.682;9.030;2023-12-22T03:04:24;6.80;99.90
3954;DHT22;1991;48.682;9.030;2023-12-22T03:06:50;6.90;99.90
3954;DHT22;1991;48.682;9.030;2023-12-22T03:09:15;6.90;99.90
3954;DHT22;1991;48.682;9.030;2023-12-22T03:11:41;6.90;99.90
3954;DHT22;1991;48.682;9.030;2023-12-22T03:14:07;6.90;99.90
3954;DHT22;1991;48.682;9.030;2023-12-22T03:16:32;6.90;99.90
3954;DHT22;1991;48.682;9.030;2023-12-22T03:18:58;6.80;99.90
3954;DHT22;1991;48.682;9.030;2023-12-22T03:21:23;6.80;99.90
3954;DHT22;1991;48.682;9.030;2023-12-22T03:23:49;6.90;99.90
3954;DHT22;1991;48.682;9.030;2023-12-22T03:26:15;6.90;99.90
3954;DHT22;1991;48.682;9.030;2023-12-22T03:28:40;6.80;99.90
3954;DHT22;1991;48.682;9.030;2023-12-22T03:31:06;6.80;99.90
3954;DHT22;1991;48.682;9.030;2023-12-22T03:33:33;6.80;99.90
3954;DHT22;1991;48.682;9.030;2023-12-22T03:35:58;6.80;99.90
3954;DHT22;1991;48.682;9.030;2023-12-22T03:38:24;6.80;99.90
3954;DHT22;1991;48.682;9.030;2023-12-22T03:40:49;6.80;99.90
3954;DHT22;1991;48.682;9.030;2023-12-22T03:43:15;6.90;99.90
3954;DHT22;1991;48.682;9.030;2023-12-22T03:45:41;6.90;99.90
3954;DHT22;1991;48.682;9.030;2023-12-22T03:48:06;6.90;99.90
3954;DHT22;1991;48.682;9.030;2023-12-22T03:50:32;7.00;99.90
3954;DHT22;1991;48.682;9.030;2023-12-22T03:52:57;7.00;99.90
3954;DHT22;1991;48.682;9.030;2023-12-22T03:55:23;7.00;99.90
3954;DHT22;1991;48.682;9.030;2023-12-22T03:57:48;7.00;99.90
3954;DHT22;1991;48.682;9.030;2023-12-22T04:00:14;7.00;99.90
3954;DHT22;1991;48.682;9.030;2023-12-22T04:02:41;7.00;99.90
3954;DHT22;1991;48.682;9.030;2023-12-22T04:05:07;7.00;99.90
3954;DHT22;1991;48.682;9.030;2023-12-22T04:07:33;6.90;99.90
3954;DHT22;1991;48.682;9.030;2023-12-22T04:09:59;6.90;99.90
3954;DHT22;1991;48.682;9.030;2023-12-22T04:12:24;7.00;99.90
3954;DHT22;1991;48.682;9.030;2023-12-22T04:14:50;7.00;99.90
3954;DHT22;1991;48.682;9.030;2023-12-22T04:17:16;7.00;99.90
3954;DHT22;1991;48.682;9.030;2023-12-22T04:19:42;7.00;99.90
3954;DHT22;1991;48.682;9.030;2023-12-22T04:22:07;7.00;99.90
3954;DHT22;1991;48.682;9.030;2023-12-22T04:24:33;7.00;99.90
3954;DHT22;1991;48.682;9.030;2023-12-22T04:26:58;7.10;99.90
3954;DHT22;1991;48.682;9.030;2023-12-22T04:29:24;7.10;99.90
3954;DHT22;1991;48.682;9.030;2023-12-22T04:31:50;6.70;99.90
3954;DHT22;1991;48.682;9.030;2023-12-22T04:34:15;6.60;99.90
3954;DHT22;1991;48.682;9.030;2023-12-22T04:36:41;6.40;99.90
3954;DHT22;1991;48.682;9.030;2023-12-22T04:39:07;6.30;99.90
3954;DHT22;1991;48.682;9.030;2023-12-22T04:41:32;6.20;99.90
3954;DHT22;1991;48.682;9.030;2023-12-22T04:43:58;6.20;99.90
3954;DHT22;1991;48.682;9.030;2023-12-22T04:46:28;6.20;99.90
3954;DHT22;1991;48.682;9.030;2023-12-22T04:48:54;6.20;99.90
3954;DHT22;1991;48.682;9.030;2023-12-22T04:51:19;6.30;99.90
3954;DHT22;1991;48.682;9.030;2023-12-22T04:53:45;6.30;99.90
3954;DHT22;1991;48.682;9.030;2023-12-22T04:56:11;6.30;99.90
3954;DHT22;1991;48.682;9.030;2023-12-22T04:58:36;6.30;99.90
3954;DHT22;1991;48.682;9.030;2023-12-22T05:01:02;6.30;99.90
3954;DHT22;1991;48.682;9.030;2023-12-22T05:03:27;6.40;99.90
3954;DHT22;1991;48.682;9.030;2023-12-22T05:05:53;6.40;99.90
3954;DHT22;1991;48.682;9.030;2023-12-22T05:08:18;6.40;99.90
3954;DHT22;1991;48.682;9.030;2023-12-22T05:10:44;6.40;99.90
3954;DHT22;1991;48.682;9.030;2023-12-22T05:13:09;6.40;99.90
3954;DHT22;1991;48.682;9.030;2023-12-22T05:15:35;6.30;99.90
3954;DHT22;1991;48.682;9.030;2023-12-22T05:18:01;6.40;99.90
3954;DHT22;1991;48.682;9.030;2023-12-22T05:20:26;6.40;99.90
3954;DHT22;1991;48.682;9.030;2023-12-22T05:22:52;6.40;99.90
3954;DHT22;1991;48.682;9.030;2023-12-22T05:25:18;6.50;99.90
3954;DHT22;1991;48.682;9.030;2023-12-22T05:27:43;6.50;99.90
3954;DHT22;1991;48.682;9.030;2023-12-22T05:30:09;6.60;99.90
3954;DHT22;1991;48.682;9.030;2023-12-22T05:32:35;6.60;99.90
3954;DHT22;1991;48.682;9.030;2023-12-22T05:35:01;6.60;99.90
3954;DHT22;1991;48.682;9.030;2023-12-22T05:37:26;6.60;99.90
3954;DHT22;1991;48.682;9.030;2023-12-22T05:39:52;6.60;99.90
3954;DHT22;1991;48.682;9.030;2023-12-22T05:42:17;6.60;99.90
3954;DHT22;1991;48.682;9.030;2023-12-22T05:44:43;6.70;99.90
3954;DHT22;1991;48.682;9.030;2023-12-22T05:47:09;6.70;99.90
3954;DHT22;1991;48.682;9.030;2023-12-22T05:49:39;6.70;99.90
3954;DHT22;1991;48.682;9.030;2023-12-22T05:52:05;6.80;99.90
3954;DHT22;1991;48.682;9.030;2023-12-22T05:54:30;6.80;99.90
3954;DHT22;1991;48.682;9.030;2023-12-22T05:56:56;6.90;99.90
3954;DHT22;1991;48.682;9.030;2023-12-22T05:59:21;6.90;99.90
3954;DHT22;1991;48.682;9.030;2023-12-22T06:01:47;6.90;99.90
3954;DHT22;1991;48.682;9.030;2023-12-22T06:04:13;6.80;99.90
3954;DHT22;1991;48.682;9.030;2023-12-22T06:06:38;6.80;99.90
3954;DHT22;1991;48.682;9.030;2023-12-22T06:09:07;6.70;99.90
3954;DHT22;1991;48.682;9.030;2023-12-22T06:11:32;6.70;99.90
3954;DHT22;1991;48.682;9.030;2023-12-22T06:13:58;6.60;99.90
3954;DHT22;1991;48.682;9.030;2023-12-22T06:16:23;6.60;99.90
3954;DHT22;1991;48.682;9.030;2023-12-22T06:18:49;6.60;99.90
3954;DHT22;1991;48.682;9.030;2023-12-22T06:21:14;6.60;99.90
3954;DHT22;1991;48.682;9.030;2023-12-22T06:23:40;6.60;99.90
3954;DHT22;1991;48.682;9.030;2023-12-22T06:26:10;6.60;99.90
3954;DHT22;1991;48.682;9.030;2023-12-22T06:28:36;6.70;99.90
3954;DHT22;1991;48.682;9.030;2023-12-22T06:31:03;6.70;99.90
3954;DHT22;1991;48.682;9.030;2023-12-22T06:33:29;6.70;99.90
3954;DHT22;1991;48.682;9.030;2023-12-22T06:35:55;6.60;99.90
3954;DHT22;1991;48.682;9.030;2023-12-22T06:38:20;6.70;99.90
3954;DHT22;1991;48.682;9.030;2023-12-22T06:40:46;6.60;99.90
3954;DHT22;1991;48.682;9.030;2023-12-22T06:43:14;6.60;99.90
3954;DHT22;1991;48.682;9.030;2023-12-22T06:45:40;6.60;99.90
3954;DHT22;1991;48.682;9.030;2023-12-22T06:48:07;6.60;99.90
3954;DHT22;1991;48.682;9.030;2023-12-22T06:50:32;6.60;99.90
3954;DHT22;1991;48.682;9.030;2023-12-22T06:52:59;6.50;99.90
3954;DHT22;1991;48.682;9.030;2023-12-22T06:55:24;6.60;99.90
3954;DHT22;1991;48.682;9.030;2023-12-22T06:57:50;6.40;99.90
3954;DHT22;1991;48.682;9.030;2023-12-22T07:00:16;6.30;99.90
3954;DHT22;1991;48.682;9.030;2023-12-22T07:02:41;6.30;99.90
3954;DHT22;1991;48.682;9.030;2023-12-22T07:07:46;6.30;99.90
3954;DHT22;1991;48.682;9.030;2023-12-22T07:10:12;6.30;99.90
3954;DHT22;1991;48.682;9.030;2023-12-22T07:12:38;6.30;99.90
3954;DHT22;1991;48.682;9.030;2023-12-22T07:15:07;6.30;99.90
3954;DHT22;1991;48.682;9.030;2023-12-22T07:17:33;6.40;99.90
3954;DHT22;1991;48.682;9.030;2023-12-22T07:19:59;6.40;99.90
3954;DHT22;1991;48.682;9.030;2023-12-22T07:22:24;6.40;99.90
3954;DHT22;1991;48.682;9.030;2023-12-22T07:24:50;6.40;99.90
3954;DHT22;1991;48.682;9.030;2023-12-22T07:27:18;6.50;99.90
3954;DHT22;1991;48.682;9.030;2023-12-22T07:29:43;6.40;99.90
3954;DHT22;1991;48.682;9.030;2023-12-22T07:32:09;6.40;99.90
3954;DHT22;1991;48.682;9.030;2023-12-22T07:34:34;6.40;99.90
3954;DHT22;1991;48.682;9.030;2023-12-22T07:37:01;6.50;99.90
3954;DHT22;1991;48.682;9.030;2023-12-22T07:39:26;6.40;99.90
3954;DHT22;1991;48.682;9.030;2023-12-22T07:41:52;6.40;99.90
3954;DHT22;1991;48.682;9.030;2023-12-22T07:44:17;6.40;99.90
3954;DHT22;1991;48.682;9.030;2023-12-22T07:46:43;6.40;99.90
3954;DHT22;1991;48.682;9.030;2023-12-22T07:49:08;6.30;99.90
3954;DHT22;1991;48.682;9.030;2023-12-22T07:51:34;6.30;99.90
3954;DHT22;1991;48.682;9.030;2023-12-22T07:53:59;6.30;99.90
3954;DHT22;1991;48.682;9.030;2023-12-22T07:56:25;6.30;99.90
3954;DHT22;1991;48.682;9.030;2023-12-22T07:58:51;6.20;99.90
3954;DHT22;1991;48.682;9.030;2023-12-22T08:01:16;6.30;99.90
3954;DHT22;1991;48.682;9.030;2023-12-22T08:03:42;6.20;99.90
3954;DHT22;1991;48.682;9.030;2023-12-22T08:06:07;6.20;99.90
3954;DHT22;1991;48.682;9.030;2023-12-22T08:08:33;6.20;99.90
3954;DHT22;1991;48.682;9.030;2023-12-22T08:10:59;6.30;99.90
3954;DHT22;1991;48.682;9.030;2023-12-22T08:13:25;6.30;99.90
3954;DHT22;1991;48.682;9.030;2023-12-22T08:15:51;6.50;99.90
3954;DHT22;1991;48.682;9.030;2023-12-22T08:18:16;6.50;99.90
3954;DHT22;1991;48.682;9.030;2023-12-22T08:20:42;6.60;99.90
3954;DHT22;1991;48.682;9.030;2023-12-22T08:23:08;6.60;99.90
3954;DHT22;1991;48.682;9.030;2023-12-22T08:25:34;6.60;99.90
3954;DHT22;1991;48.682;9.030;2023-12-22T08:27:59;6.70;99.90
3954;DHT22;1991;48.682;9.030;2023-12-22T08:30:26;6.70;99.90
3954;DHT22;1991;48.682;9.030;2023-12-22T08:32:51;6.80;99.90
3954;DHT22;1991;48.682;9.030;2023-12-22T08:35:18;6.90;99.90
3954;DHT22;1991;48.682;9.030;2023-12-22T08:37:49;6.90;99.90
3954;DHT22;1991;48.682;9.030;2023-12-22T08:40:15;6.80;99.90
3954;DHT22;1991;48.682;9.030;2023-12-22T08:42:42;6.80;99.90
3954;DHT22;1991;48.682;9.030;2023-12-22T08:45:08;6.80;99.90
3954;DHT22;1991;48.682;9.030;2023-12-22T08:47:34;6.80;99.90
3954;DHT22;1991;48.682;9.030;2023-12-22T08:50:00;6.80;99.90
3954;DHT22;1991;48.682;9.030;2023-12-22T08:52:29;6.80;99.90
3954;DHT22;1991;48.682;9.030;2023-12-22T08:54:54;6.70;99.90
3954;DHT22;1991;48.682;9.030;2023-12-22T08:57:20;6.80;99.90
3954;DHT22;1991;48.682;9.030;2023-12-22T08:59:45;6.80;99.90
3954;DHT22;1991;48.682;9.030;2023-12-22T09:02:11;6.80;99.90
3954;DHT22;1991;48.682;9.030;2023-12-22T09:04:37;6.90;99.90
3954;DHT22;1991;48.682;9.030;2023-12-22T09:07:04;6.90;99.90
3954;DHT22;1991;48.682;9.030;2023-12-22T09:09:29;7.00;99.90
3954;DHT22;1991;48.682;9.030;2023-12-22T09:11:55;7.00;99.90
3954;DHT22;1991;48.682;9.030;2023-12-22T09:14:20;7.10;99.90
3954;DHT22;1991;48.682;9.030;2023-12-22T09:16:46;7.20;99.90
3954;DHT22;1991;48.682;9.030;2023-12-22T09:19:12;7.30;99.90
3954;DHT22;1991;48.682;9.030;2023-12-22T09:21:37;7.20;99.90
3954;DHT22;1991;48.682;9.030;2023-12-22T09:24:03;7.30;99.90
3954;DHT22;1991;48.682;9.030;2023-12-22T09:26:29;7.20;99.90
3954;DHT22;1991;48.682;9.030;2023-12-22T09:28:55;7.20;99.90
3954;DHT22;1991;48.682;9.030;2023-12-22T09:31:20;7.20;99.90
3954;DHT22;1991;48.682;9.030;2023-12-22T09:33:47;7.20;99.90
3954;DHT22;1991;48.682;9.030;2023-12-22T09:36:14;7.30;99.90
3954;DHT22;1991;48.682;9.030;2023-12-22T09:38:39;7.40;99.90
3954;DHT22;1991;48.682;9.030;2023-12-22T09:41:07;7.40;99.90
3954;DHT22;1991;48.682;9.030;2023-12-22T09:43:35;7.40;99.90
3954;DHT22;1991;48.682;9.030;2023-12-22T09:46:02;7.40;99.90
3954;DHT22;1991;48.682;9.030;2023-12-22T09:48:29;7.40;99.90
3954;DHT22;1991;48.682;9.030;2023-12-22T09:50:56;7.40;99.90
3954;DHT22;1991;48.682;9.030;2023-12-22T09:53:23;7.40;99.90
3954;DHT22;1991;48.682;9.030;2023-12-22T09:55:50;7.40;99.90
3954;DHT22;1991;48.682;9.030;2023-12-22T09:58:16;7.50;99.90
3954;DHT22;1991;48.682;9.030;2023-12-22T10:00:43;7.50;99.90
3954;DHT22;1991;48.682;9.030;2023-12-22T10:03:10;7.60;99.90
3954;DHT22;1991;48.682;9.030;2023-12-22T10:05:42;7.50;99.90
3954;DHT22;1991;48.682;9.030;2023-12-22T10:08:09;7.50;99.90
3954;DHT22;1991;48.682;9.030;2023-12-22T10:10:40;7.50;99.90
3954;DHT22;1991;48.682;9.030;2023-12-22T10:13:07;7.50;99.90
3954;DHT22;1991;48.682;9.030;2023-12-22T10:15:39;7.60;99.90
3954;DHT22;1991;48.682;9.030;2023-12-22T10:18:06;7.60;99.90
3954;DHT22;1991;48.682;9.030;2023-12-22T10:20:32;7.60;99.90
3954;DHT22;1991;48.682;9.030;2023-12-22T10:22:58;7.60;99.90
3954;DHT22;1991;48.682;9.030;2023-12-22T10:25:28;7.60;99.90
3954;DHT22;1991;48.682;9.030;2023-12-22T10:27:55;7.50;99.90
3954;DHT22;1991;48.682;9.030;2023-12-22T10:30:21;7.60;99.90
3954;DHT22;1991;48.682;9.030;2023-12-22T10:32:47;7.60;99.90
3954;DHT22;1991;48.682;9.030;2023-12-22T10:35:12;7.60;99.90
3954;DHT22;1991;48.682;9.030;2023-12-22T10:37:38;7.60;99.90
3954;DHT22;1991;48.682;9.030;2023-12-22T10:40:04;7.70;99.90
3954;DHT22;1991;48.682;9.030;2023-12-22T10:42:31;7.70;99.90
3954;DHT22;1991;48.682;9.030;2023-12-22T10:44:57;7.70;99.90
3954;DHT22;1991;48.682;9.030;2023-12-22T10:47:23;7.60;99.90
3954;DHT22;1991;48.682;9.030;2023-12-22T10:49:48;7.70;99.90
3954;DHT22;1991;48.682;9.030;2023-12-22T10:52:18;7.70;99.90
3954;DHT22;1991;48.682;9.030;2023-12-22T10:54:44;7.70;99.90
3954;DHT22;1991;48.682;9.030;2023-12-22T10:57:10;7.70;99.90
3954;DHT22;1991;48.682;9.030;2023-12-22T10:59:40;7.60;99.90
3954;DHT22;1991;48.682;9.030;2023-12-22T11:02:18;7.60;99.90
3954;DHT22;1991;48.682;9.030;2023-12-22T11:04:57;7.50;99.90
3954;DHT22;1991;48.682;9.030;2023-12-22T11:07:26;7.50;99.90
3954;DHT22;1991;48.682;9.030;2023-12-22T11:09:56;7.50;99.90
3954;DHT22;1991;48.682;9.030;2023-12-22T11:12:24;7.40;99.90
3954;DHT22;1991;48.682;9.030;2023-12-22T11:14:51;7.40;99.90
3954;DHT22;1991;48.682;9.030;2023-12-22T11:17:21;7.40;99.90
3954;DHT22;1991;48.682;9.030;2023-12-22T11:19:49;7.40;99.90
3954;DHT22;1991;48.682;9.030;2023-12-22T11:22:17;7.30;99.90
3954;DHT22;1991;48.682;9.030;2023-12-22T11:24:46;7.30;99.90
3954;DHT22;1991;48.682;9.030;2023-12-22T11:27:16;7.20;99.90
3954;DHT22;1991;48.682;9.030;2023-12-22T11:29:43;7.10;99.90
3954;DHT22;1991;48.682;9.030;2023-12-22T11:32:11;7.10;99.90
3954;DHT22;1991;48.682;9.030;2023-12-22T11:34:38;7.10;99.90
3954;DHT22;1991;48.682;9.030;2023-12-22T11:37:07;7.00;99.90
3954;DHT22;1991;48.682;9.030;2023-12-22T11:39:33;6.90;99.90
3954;DHT22;1991;48.682;9.030;2023-12-22T11:41:59;6.80;99.90
3954;DHT22;1991;48.682;9.030;2023-12-22T11:44:25;6.80;99.90
3954;DHT22;1991;48.682;9.030;2023-12-22T11:47:03;6.80;99.90
3954;DHT22;1991;48.682;9.030;2023-12-22T11:49:34;6.80;99.90
3954;DHT22;1991;48.682;9.030;2023-12-22T11:52:18;6.80;99.90
3954;DHT22;1991;48.682;9.030;2023-12-22T11:54:54;6.80;99.90
3954;DHT22;1991;48.682;9.030;2023-12-22T11:57:37;6.90;99.90
3954;DHT22;1991;48.682;9.030;2023-12-22T12:02:37;6.90;99.90
3954;DHT22;1991;48.682;9.030;2023-12-22T12:05:08;6.90;99.90
3954;DHT22;1991;48.682;9.030;2023-12-22T12:10:08;6.90;99.90
3954;DHT22;1991;48.682;9.030;2023-12-22T12:12:34;6.90;99.90
3954;DHT22;1991;48.682;9.030;2023-12-22T12:15:16;6.90;99.90
3954;DHT22;1991;48.682;9.030;2023-12-22T12:17:42;6.80;99.90
3954;DHT22;1991;48.682;9.030;2023-12-22T12:20:11;6.80;99.90
3954;DHT22;1991;48.682;9.030;2023-12-22T12:22:38;6.80;99.90
3954;DHT22;1991;48.682;9.030;2023-12-22T12:25:09;6.90;99.90
3954;DHT22;1991;48.682;9.030;2023-12-22T12:27:36;6.90;99.90
3954;DHT22;1991;48.682;9.030;2023-12-22T12:30:13;6.90;99.90
3954;DHT22;1991;48.682;9.030;2023-12-22T12:32:43;6.90;99.90
3954;DHT22;1991;48.682;9.030;2023-12-22T12:35:12;6.90;99.90
3954;DHT22;1991;48.682;9.030;2023-12-22T12:37:38;6.90;99.90
3954;DHT22;1991;48.682;9.030;2023-12-22T12:40:07;6.90;99.90
3954;DHT22;1991;48.682;9.030;2023-12-22T12:42:35;6.90;99.90
3954;DHT22;1991;48.682;9.030;2023-12-22T12:45:04;6.90;99.90
3954;DHT22;1991;48.682;9.030;2023-12-22T12:47:29;6.90;99.90
3954;DHT22;1991;48.682;9.030;2023-12-22T12:49:59;6.90;99.90
3954;DHT22;1991;48.682;9.030;2023-12-22T12:52:25;7.00;99.90
3954;DHT22;1991;48.682;9.030;2023-12-22T12:54:51;7.00;99.90
3954;DHT22;1991;48.682;9.030;2023-12-22T12:57:17;7.10;99.90
3954;DHT22;1991;48.682;9.030;2023-12-22T12:59:47;7.10;99.90
3954;DHT22;1991;48.682;9.030;2023-12-22T13:02:14;7.10;99.90
3954;DHT22;1991;48.682;9.030;2023-12-22T13:04:39;7.20;99.90
3954;DHT22;1991;48.682;9.030;2023-12-22T13:07:05;7.30;99.90
3954;DHT22;1991;48.682;9.030;2023-12-22T13:09:34;7.30;99.90
3954;DHT22;1991;48.682;9.030;2023-12-22T13:12:00;7.30;99.90
3954;DHT22;1991;48.682;9.030;2023-12-22T13:14:26;7.30;99.90
3954;DHT22;1991;48.682;9.030;2023-12-22T13:16:56;7.30;99.90
3954;DHT22;1991;48.682;9.030;2023-12-22T13:19:23;7.30;99.90
3954;DHT22;1991;48.682;9.030;2023-12-22T13:21:55;7.40;99.90
3954;DHT22;1991;48.682;9.030;2023-12-22T13:24:21;7.40;99.90
3954;DHT22;1991;48.682;9.030;2023-12-22T13:26:47;7.40;99.90
3954;DHT22;1991;48.682;9.030;2023-12-22T13:29:13;7.40;99.90
3954;DHT22;1991;48.682;9.030;2023-12-22T13:31:40;7.50;99.90
3954;DHT22;1991;48.682;9.030;2023-12-22T13:34:13;7.50;99.90
3954;DHT22;1991;48.682;9.030;2023-12-22T13:36:40;7.50;99.90
3954;DHT22;1991;48.682;9.030;2023-12-22T13:39:07;7.50;99.90
3954;DHT22;1991;48.682;9.030;2023-12-22T13:41:42;7.60;99.90
3954;DHT22;1991;48.682;9.030;2023-12-22T13:44:12;7.60;99.90
3954;DHT22;1991;48.682;9.030;2023-12-22T13:46:38;7.60;99.90
3954;DHT22;1991;48.682;9.030;2023-12-22T13:49:08;7.70;99.90
3954;DHT22;1991;48.682;9.030;2023-12-22T13:51:41;7.70;99.90
3954;DHT22;1991;48.682;9.030;2023-12-22T13:54:07;7.80;99.90
3954;DHT22;1991;48.682;9.030;2023-12-22T13:56:34;7.90;99.90
3954;DHT22;1991;48.682;9.030;2023-12-22T13:59:01;8.00;99.90
3954;DHT22;1991;48.682;9.030;2023-12-22T14:01:26;8.00;99.90
3954;DHT22;1991;48.682;9.030;2023-12-22T14:03:53;8.00;99.90
3954;DHT22;1991;48.682;9.030;2023-12-22T14:06:19;8.10;99.90
3954;DHT22;1991;48.682;9.030;2023-12-22T14:08:45;8.10;99.90
3954;DHT22;1991;48.682;9.030;2023-12-22T14:11:10;8.10;99.90
3954;DHT22;1991;48.682;9.030;2023-12-22T14:13:36;8.10;99.90
3954;DHT22;1991;48.682;9.030;2023-12-22T14:16:06;8.10;99.90
3954;DHT22;1991;48.682;9.030;2023-12-22T14:18:32;8.20;99.90
3954;DHT22;1991;48.682;9.030;2023-12-22T14:20:57;8.20;99.90
3954;DHT22;1991;48.682;9.030;2023-12-22T14:23:24;8.20;99.90
3954;DHT22;1991;48.682;9.030;2023-12-22T14:25:49;8.20;99.90
3954;DHT22;1991;48.682;9.030;2023-12-22T14:28:15;8.30;99.90
3954;DHT22;1991;48.682;9.030;2023-12-22T14:30:41;8.30;99.90
3954;DHT22;1991;48.682;9.030;2023-12-22T14:33:06;8.30;99.90
3954;DHT22;1991;48.682;9.030;2023-12-22T14:35:32;8.30;99.90
3954;DHT22;1991;48.682;9.030;2023-12-22T14:37:57;8.30;99.90
3954;DHT22;1991;48.682;9.030;2023-12-22T14:40:23;8.40;99.90
3954;DHT22;1991;48.682;9.030;2023-12-22T14:42:49;8.40;99.90
3954;DHT22;1991;48.682;9.030;2023-12-22T14:45:14;8.40;99.90
3954;DHT22;1991;48.682;9.030;2023-12-22T14:47:40;8.50;99.90
3954;DHT22;1991;48.682;9.030;2023-12-22T14:50:06;8.50;99.90
3954;DHT22;1991;48.682;9.030;2023-12-22T14:52:32;8.50;99.90
3954;DHT22;1991;48.682;9.030;2023-12-22T14:54:58;8.50;99.90
3954;DHT22;1991;48.682;9.030;2023-12-22T14:57:24;8.50;99.90
3954;DHT22;1991;48.682;9.030;2023-12-22T14:59:50;8.50;99.90
3954;DHT22;1991;48.682;9.030;2023-12-22T15:02:15;8.50;99.90
3954;DHT22;1991;48.682;9.030;2023-12-22T15:04:41;8.50;99.90
3954;DHT22;1991;48.682;9.030;2023-12-22T15:07:07;8.50;99.90
3954;DHT22;1991;48.682;9.030;2023-12-22T15:09:32;8.50;99.90
3954;DHT22;1991;48.682;9.030;2023-12-22T15:11:58;8.50;99.90
3954;DHT22;1991;48.682;9.030;2023-12-22T15:14:24;8.50;99.90
3954;DHT22;1991;48.682;9.030;2023-12-22T15:16:49;8.50;99.90
3954;DHT22;1991;48.682;9.030;2023-12-22T15:19:17;8.50;99.90
3954;DHT22;1991;48.682;9.030;2023-12-22T15:21:51;8.50;99.90
3954;DHT22;1991;48.682;9.030;2023-12-22T15:24:17;8.50;99.90
3954;DHT22;1991;48.682;9.030;2023-12-22T15:26:42;8.60;99.90
3954;DHT22;1991;48.682;9.030;2023-12-22T15:29:08;8.60;99.90
3954;DHT22;1991;48.682;9.030;2023-12-22T15:31:34;8.60;99.90
3954;DHT22;1991;48.682;9.030;2023-12-22T15:34:00;8.70;99.90
3954;DHT22;1991;48.682;9.030;2023-12-22T15:36:25;8.70;99.90
3954;DHT22;1991;48.682;9.030;2023-12-22T15:38:52;8.60;99.90
3954;DHT22;1991;48.682;9.030;2023-12-22T15:41:18;8.70;99.90
3954;DHT22;1991;48.682;9.030;2023-12-22T15:43:44;8.60;99.90
3954;DHT22;1991;48.682;9.030;2023-12-22T15:46:09;8.60;99.90
3954;DHT22;1991;48.682;9.030;2023-12-22T15:48:36;8.60;99.90
3954;DHT22;1991;48.682;9.030;2023-12-22T15:51:09;8.60;99.90
3954;DHT22;1991;48.682;9.030;2023-12-22T15:53:39;8.60;99.90
3954;DHT22;1991;48.682;9.030;2023-12-22T15:56:07;8.60;99.90
3954;DHT22;1991;48.682;9.030;2023-12-22T15:58:36;8.60;99.90
3954;DHT22;1991;48.682;9.030;2023-12-22T16:01:02;8.50;99.90
3954;DHT22;1991;48.682;9.030;2023-12-22T16:03:28;8.50;99.90
3954;DHT22;1991;48.682;9.030;2023-12-22T16:05:54;8.60;99.90
3954;DHT22;1991;48.682;9.030;2023-12-22T16:08:19;8.50;99.90
3954;DHT22;1991;48.682;9.030;2023-12-22T16:10:46;8.60;99.90
3954;DHT22;1991;48.682;9.030;2023-12-22T16:13:12;8.50;99.90
3954;DHT22;1991;48.682;9.030;2023-12-22T16:15:38;8.60;99.90
3954;DHT22;1991;48.682;9.030;2023-12-22T16:18:04;8.60;99.90
3954;DHT22;1991;48.682;9.030;2023-12-22T16:20:30;8.60;99.90
3954;DHT22;1991;48.682;9.030;2023-12-22T16:22:55;8.70;99.90
3954;DHT22;1991;48.682;9.030;2023-12-22T16:25:21;8.60;99.90